Detroit Metropolitan Wayne County Airport
KDTW : now visible

Airfield :











YOU CAN JOIN US ON...

 
LOGIN :

Register | Disclaimer

   EN    FR    IT 

 









Legend :    VFR   Marginal VFR   IFR   Intensive IFR   Very Intensive IFR
Visi :
Ceiling :
>= 8 km
>= 3000ft
5 to 8 km
1000 to 3000 ft
1500m to 5 km
500 to 1000 ft
800 to 1500m
200 to 500 ft
< 800m
< 200 ft
Symbols :   Thunderstorms  Fog  Heavy snow  Heavy precipitations  Wind > 20 kt






- Airport Elevation : 645 ft
- IATA code : DTW


KDTW - Detroit Metropolitan Wayne County

CURRENT METAR :
  • 201453Z 25004KT 9SM FEW090 FEW120 SCT250 25/18 A2996 RMK AO2 SLP142 T02500178 50000

EXPIRED METARs :
  • 201353Z COR 18003KT 8SM FEW080 FEW130 SCT240 22/17 A2997 RMK AO2 SLP144 T02220172
  • 201253Z 09003KT 7SM FEW080 SCT120 OVC240 20/16 A2996 RMK AO2 SLP142 T02000161
  • 201153Z 06003KT 6SM HZ FEW130 BKN240 18/15 A2996 RMK AO2 SLP142 70015 T01830150 10194 20161 50003
  • 201053Z 05003KT 6SM BR FEW150 BKN250 17/14 A2996 RMK AO2 SLP144 T01670144 $

TAF KDTW
Valid from the 20 at 15:00 until the 21 at 18:00 UTC


201500Z 2015/2118 21008KT P6SM SCT080 SCT250
PROB30 2019/2023 4SM TSRA SCT040CB OVC070
FM210200 21005KT P6SM BKN080 BKN250
FM211300 22009KT P6SM FEW070
KZOB FIR / North America



MET'MAP, your aeronautical weather chart ! - Copyright ORBIFLY December 2007 - Disclaimer

ORBIFLY MET'MAP TEAM :

Programming & Development : Alexandra Zaïnal
Original concept : Baudouin d'Aumeries
Technical & hardware support : Manuel Goepfert
Assistance : Marc-Olivier Méhu




SOURCES & CREDITS :

   NOAA       Earth
Advisory